sensor_id;sensor_type;location;lat;lon;timestamp;P1;durP1;ratioP1;P2;durP2;ratioP2
10651;SDS011;5374;42.742;23.266;2024-03-25T00:02:21;1.97;;;1.70;;
10651;SDS011;5374;42.742;23.266;2024-03-25T00:05:09;1.20;;;1.10;;
10651;SDS011;5374;42.742;23.266;2024-03-25T00:07:56;0.83;;;0.60;;
10651;SDS011;5374;42.742;23.266;2024-03-25T00:10:43;0.67;;;0.43;;
10651;SDS011;5374;42.742;23.266;2024-03-25T00:13:31;0.70;;;0.60;;
10651;SDS011;5374;42.742;23.266;2024-03-25T00:16:18;1.43;;;0.90;;
10651;SDS011;5374;42.742;23.266;2024-03-25T00:19:04;0.87;;;0.70;;
10651;SDS011;5374;42.742;23.266;2024-03-25T00:21:51;0.40;;;0.40;;
10651;SDS011;5374;42.742;23.266;2024-03-25T00:24:37;0.40;;;0.40;;
10651;SDS011;5374;42.742;23.266;2024-03-25T00:27:24;1.10;;;0.83;;
10651;SDS011;5374;42.742;23.266;2024-03-25T00:30:12;2.20;;;0.90;;
10651;SDS011;5374;42.742;23.266;2024-03-25T00:32:59;0.70;;;0.50;;
10651;SDS011;5374;42.742;23.266;2024-03-25T00:35:45;0.67;;;0.50;;
10651;SDS011;5374;42.742;23.266;2024-03-25T00:38:33;0.30;;;0.30;;
10651;SDS011;5374;42.742;23.266;2024-03-25T00:41:19;2.03;;;0.40;;
10651;SDS011;5374;42.742;23.266;2024-03-25T00:44:07;0.40;;;0.40;;
10651;SDS011;5374;42.742;23.266;2024-03-25T00:46:54;0.40;;;0.40;;
10651;SDS011;5374;42.742;23.266;2024-03-25T00:49:41;0.80;;;0.60;;
10651;SDS011;5374;42.742;23.266;2024-03-25T00:52:27;0.60;;;0.60;;
10651;SDS011;5374;42.742;23.266;2024-03-25T00:55:15;0.80;;;0.60;;
10651;SDS011;5374;42.742;23.266;2024-03-25T00:58:02;1.00;;;0.90;;
10651;SDS011;5374;42.742;23.266;2024-03-25T01:00:48;2.03;;;0.70;;
10651;SDS011;5374;42.742;23.266;2024-03-25T01:03:37;1.23;;;0.80;;
10651;SDS011;5374;42.742;23.266;2024-03-25T01:06:23;0.80;;;0.80;;
10651;SDS011;5374;42.742;23.266;2024-03-25T01:09:10;0.93;;;0.70;;
10651;SDS011;5374;42.742;23.266;2024-03-25T01:11:56;1.13;;;0.87;;
10651;SDS011;5374;42.742;23.266;2024-03-25T01:14:43;1.43;;;1.20;;
10651;SDS011;5374;42.742;23.266;2024-03-25T01:17:29;1.00;;;0.90;;
10651;SDS011;5374;42.742;23.266;2024-03-25T01:20:18;2.20;;;1.50;;
10651;SDS011;5374;42.742;23.266;2024-03-25T01:23:04;7.73;;;3.30;;
10651;SDS011;5374;42.742;23.266;2024-03-25T01:25:51;8.83;;;4.30;;
10651;SDS011;5374;42.742;23.266;2024-03-25T01:28:37;5.73;;;2.33;;
10651;SDS011;5374;42.742;23.266;2024-03-25T01:31:24;1.80;;;1.30;;
10651;SDS011;5374;42.742;23.266;2024-03-25T01:34:10;2.43;;;1.83;;
10651;SDS011;5374;42.742;23.266;2024-03-25T01:36:59;1.10;;;0.90;;
10651;SDS011;5374;42.742;23.266;2024-03-25T01:39:45;0.70;;;0.50;;
10651;SDS011;5374;42.742;23.266;2024-03-25T01:42:32;0.53;;;0.53;;
10651;SDS011;5374;42.742;23.266;2024-03-25T01:45:18;0.83;;;0.50;;
10651;SDS011;5374;42.742;23.266;2024-03-25T01:48:06;0.70;;;0.60;;
10651;SDS011;5374;42.742;23.266;2024-03-25T01:50:53;0.37;;;0.37;;
10651;SDS011;5374;42.742;23.266;2024-03-25T01:53:41;0.80;;;0.60;;
10651;SDS011;5374;42.742;23.266;2024-03-25T01:56:28;0.90;;;0.60;;
10651;SDS011;5374;42.742;23.266;2024-03-25T01:59:19;0.70;;;0.70;;
10651;SDS011;5374;42.742;23.266;2024-03-25T02:02:05;2.50;;;2.00;;
10651;SDS011;5374;42.742;23.266;2024-03-25T02:04:52;8.83;;;5.00;;
10651;SDS011;5374;42.742;23.266;2024-03-25T02:07:39;1.70;;;1.43;;
10651;SDS011;5374;42.742;23.266;2024-03-25T02:10:28;1.00;;;0.70;;
10651;SDS011;5374;42.742;23.266;2024-03-25T02:13:15;0.80;;;0.80;;
10651;SDS011;5374;42.742;23.266;2024-03-25T02:16:02;0.60;;;0.60;;
10651;SDS011;5374;42.742;23.266;2024-03-25T02:18:50;0.80;;;0.80;;
10651;SDS011;5374;42.742;23.266;2024-03-25T02:21:37;1.10;;;0.80;;
10651;SDS011;5374;42.742;23.266;2024-03-25T02:24:23;1.67;;;1.10;;
10651;SDS011;5374;42.742;23.266;2024-03-25T02:27:14;1.73;;;1.10;;
10651;SDS011;5374;42.742;23.266;2024-03-25T02:30:01;0.93;;;0.90;;
10651;SDS011;5374;42.742;23.266;2024-03-25T02:32:51;1.27;;;0.90;;
10651;SDS011;5374;42.742;23.266;2024-03-25T02:35:37;2.00;;;1.23;;
10651;SDS011;5374;42.742;23.266;2024-03-25T02:38:25;2.77;;;1.50;;
10651;SDS011;5374;42.742;23.266;2024-03-25T02:41:12;1.20;;;0.93;;
10651;SDS011;5374;42.742;23.266;2024-03-25T02:44:00;0.70;;;0.70;;
10651;SDS011;5374;42.742;23.266;2024-03-25T02:46:46;0.87;;;0.70;;
10651;SDS011;5374;42.742;23.266;2024-03-25T02:49:34;0.97;;;0.87;;
10651;SDS011;5374;42.742;23.266;2024-03-25T02:52:21;1.10;;;1.00;;
10651;SDS011;5374;42.742;23.266;2024-03-25T02:55:08;1.20;;;0.70;;
10651;SDS011;5374;42.742;23.266;2024-03-25T02:57:54;0.90;;;0.80;;
10651;SDS011;5374;42.742;23.266;2024-03-25T03:00:43;1.20;;;1.10;;
10651;SDS011;5374;42.742;23.266;2024-03-25T03:03:29;1.20;;;1.10;;
10651;SDS011;5374;42.742;23.266;2024-03-25T03:06:16;0.90;;;0.90;;
10651;SDS011;5374;42.742;23.266;2024-03-25T03:09:02;1.13;;;1.03;;
10651;SDS011;5374;42.742;23.266;2024-03-25T03:11:49;1.30;;;1.17;;
10651;SDS011;5374;42.742;23.266;2024-03-25T03:14:36;1.43;;;1.30;;
10651;SDS011;5374;42.742;23.266;2024-03-25T03:17:24;1.30;;;1.20;;
10651;SDS011;5374;42.742;23.266;2024-03-25T03:20:11;1.40;;;1.30;;
10651;SDS011;5374;42.742;23.266;2024-03-25T03:22:57;1.40;;;1.30;;
10651;SDS011;5374;42.742;23.266;2024-03-25T03:25:44;1.87;;;1.60;;
10651;SDS011;5374;42.742;23.266;2024-03-25T03:28:31;2.03;;;1.50;;
10651;SDS011;5374;42.742;23.266;2024-03-25T03:31:18;1.33;;;1.20;;
10651;SDS011;5374;42.742;23.266;2024-03-25T03:34:08;1.20;;;1.10;;
10651;SDS011;5374;42.742;23.266;2024-03-25T03:36:54;1.70;;;1.50;;
10651;SDS011;5374;42.742;23.266;2024-03-25T03:39:41;1.40;;;1.30;;
10651;SDS011;5374;42.742;23.266;2024-03-25T03:42:27;1.40;;;1.30;;
10651;SDS011;5374;42.742;23.266;2024-03-25T03:45:14;1.60;;;1.50;;
10651;SDS011;5374;42.742;23.266;2024-03-25T03:48:00;1.83;;;1.40;;
10651;SDS011;5374;42.742;23.266;2024-03-25T03:50:49;1.40;;;1.30;;
10651;SDS011;5374;42.742;23.266;2024-03-25T03:53:35;2.00;;;1.47;;
10651;SDS011;5374;42.742;23.266;2024-03-25T03:56:22;1.60;;;1.40;;
10651;SDS011;5374;42.742;23.266;2024-03-25T03:59:09;1.60;;;1.50;;
10651;SDS011;5374;42.742;23.266;2024-03-25T04:01:55;1.50;;;1.40;;
10651;SDS011;5374;42.742;23.266;2024-03-25T04:04:43;1.70;;;1.60;;
10651;SDS011;5374;42.742;23.266;2024-03-25T04:07:31;1.67;;;1.57;;
10651;SDS011;5374;42.742;23.266;2024-03-25T04:10:18;2.00;;;1.80;;
10651;SDS011;5374;42.742;23.266;2024-03-25T04:13:06;3.03;;;2.10;;
10651;SDS011;5374;42.742;23.266;2024-03-25T04:15:53;2.90;;;2.03;;
10651;SDS011;5374;42.742;23.266;2024-03-25T04:18:40;2.47;;;2.27;;
10651;SDS011;5374;42.742;23.266;2024-03-25T04:21:27;2.53;;;2.20;;
10651;SDS011;5374;42.742;23.266;2024-03-25T04:24:17;2.70;;;2.30;;
10651;SDS011;5374;42.742;23.266;2024-03-25T04:27:03;3.13;;;2.57;;
10651;SDS011;5374;42.742;23.266;2024-03-25T04:29:50;3.03;;;2.50;;
10651;SDS011;5374;42.742;23.266;2024-03-25T04:32:37;3.43;;;2.93;;
10651;SDS011;5374;42.742;23.266;2024-03-25T04:35:24;4.30;;;3.17;;
10651;SDS011;5374;42.742;23.266;2024-03-25T04:38:10;6.20;;;5.53;;
10651;SDS011;5374;42.742;23.266;2024-03-25T04:40:58;6.60;;;4.20;;
10651;SDS011;5374;42.742;23.266;2024-03-25T04:43:44;6.20;;;4.93;;
10651;SDS011;5374;42.742;23.266;2024-03-25T04:46:30;7.37;;;5.30;;
10651;SDS011;5374;42.742;23.266;2024-03-25T04:49:16;6.60;;;5.23;;
10651;SDS011;5374;42.742;23.266;2024-03-25T04:52:03;6.53;;;4.90;;
10651;SDS011;5374;42.742;23.266;2024-03-25T04:54:49;7.23;;;5.33;;
10651;SDS011;5374;42.742;23.266;2024-03-25T04:57:37;5.73;;;5.13;;
10651;SDS011;5374;42.742;23.266;2024-03-25T05:00:23;7.47;;;5.73;;
10651;SDS011;5374;42.742;23.266;2024-03-25T05:03:09;7.63;;;6.00;;
10651;SDS011;5374;42.742;23.266;2024-03-25T05:05:55;7.53;;;5.63;;
10651;SDS011;5374;42.742;23.266;2024-03-25T05:08:41;7.73;;;5.53;;
10651;SDS011;5374;42.742;23.266;2024-03-25T05:11:27;7.60;;;6.00;;
10651;SDS011;5374;42.742;23.266;2024-03-25T05:14:15;7.97;;;5.90;;
10651;SDS011;5374;42.742;23.266;2024-03-25T05:17:01;8.43;;;6.33;;
10651;SDS011;5374;42.742;23.266;2024-03-25T05:19:47;7.40;;;6.40;;
10651;SDS011;5374;42.742;23.266;2024-03-25T05:22:33;9.53;;;6.80;;
10651;SDS011;5374;42.742;23.266;2024-03-25T05:25:19;7.53;;;6.40;;
10651;SDS011;5374;42.742;23.266;2024-03-25T05:28:06;7.50;;;6.17;;
10651;SDS011;5374;42.742;23.266;2024-03-25T05:30:54;9.37;;;7.03;;
10651;SDS011;5374;42.742;23.266;2024-03-25T05:33:40;8.70;;;7.03;;
10651;SDS011;5374;42.742;23.266;2024-03-25T05:36:26;7.90;;;6.53;;
10651;SDS011;5374;42.742;23.266;2024-03-25T05:39:12;9.87;;;8.00;;
10651;SDS011;5374;42.742;23.266;2024-03-25T05:41:58;9.00;;;7.10;;
10651;SDS011;5374;42.742;23.266;2024-03-25T05:44:45;9.47;;;7.70;;
10651;SDS011;5374;42.742;23.266;2024-03-25T05:47:32;9.87;;;7.83;;
10651;SDS011;5374;42.742;23.266;2024-03-25T05:50:18;9.10;;;8.10;;
10651;SDS011;5374;42.742;23.266;2024-03-25T05:53:04;8.27;;;7.17;;
10651;SDS011;5374;42.742;23.266;2024-03-25T05:55:50;7.20;;;6.50;;
10651;SDS011;5374;42.742;23.266;2024-03-25T05:58:37;6.27;;;5.67;;
10651;SDS011;5374;42.742;23.266;2024-03-25T06:01:23;6.97;;;6.33;;
10651;SDS011;5374;42.742;23.266;2024-03-25T06:04:11;6.50;;;5.90;;
10651;SDS011;5374;42.742;23.266;2024-03-25T06:06:57;6.80;;;6.20;;
10651;SDS011;5374;42.742;23.266;2024-03-25T06:09:43;7.10;;;6.50;;
10651;SDS011;5374;42.742;23.266;2024-03-25T06:12:29;6.80;;;6.20;;
10651;SDS011;5374;42.742;23.266;2024-03-25T06:15:15;8.27;;;7.13;;
10651;SDS011;5374;42.742;23.266;2024-03-25T06:18:01;7.37;;;6.60;;
10651;SDS011;5374;42.742;23.266;2024-03-25T06:20:49;14.40;;;11.13;;
10651;SDS011;5374;42.742;23.266;2024-03-25T06:23:35;8.00;;;6.80;;
10651;SDS011;5374;42.742;23.266;2024-03-25T06:26:21;7.40;;;6.63;;
10651;SDS011;5374;42.742;23.266;2024-03-25T06:29:08;7.60;;;6.93;;
10651;SDS011;5374;42.742;23.266;2024-03-25T06:31:54;10.90;;;9.80;;
10651;SDS011;5374;42.742;23.266;2024-03-25T06:34:58;9.00;;;8.10;;
10651;SDS011;5374;42.742;23.266;2024-03-25T06:37:46;9.40;;;7.63;;
10651;SDS011;5374;42.742;23.266;2024-03-25T06:40:32;8.90;;;8.00;;
10651;SDS011;5374;42.742;23.266;2024-03-25T06:43:18;8.63;;;7.77;;
10651;SDS011;5374;42.742;23.266;2024-03-25T06:46:04;10.27;;;9.17;;
10651;SDS011;5374;42.742;23.266;2024-03-25T06:48:51;11.03;;;10.03;;
10651;SDS011;5374;42.742;23.266;2024-03-25T06:51:37;8.47;;;7.63;;
10651;SDS011;5374;42.742;23.266;2024-03-25T06:54:25;13.63;;;12.33;;
10651;SDS011;5374;42.742;23.266;2024-03-25T06:57:12;7.47;;;6.77;;
10651;SDS011;5374;42.742;23.266;2024-03-25T06:59:58;7.80;;;7.10;;
10651;SDS011;5374;42.742;23.266;2024-03-25T07:02:44;7.70;;;6.93;;
10651;SDS011;5374;42.742;23.266;2024-03-25T07:05:30;8.13;;;7.33;;
10651;SDS011;5374;42.742;23.266;2024-03-25T07:08:17;8.07;;;7.33;;
10651;SDS011;5374;42.742;23.266;2024-03-25T07:11:05;11.73;;;10.30;;
10651;SDS011;5374;42.742;23.266;2024-03-25T07:13:51;9.63;;;8.63;;
10651;SDS011;5374;42.742;23.266;2024-03-25T07:16:37;11.90;;;8.50;;
10651;SDS011;5374;42.742;23.266;2024-03-25T07:19:23;8.50;;;7.33;;
10651;SDS011;5374;42.742;23.266;2024-03-25T07:22:10;7.77;;;7.07;;
10651;SDS011;5374;42.742;23.266;2024-03-25T07:24:56;9.93;;;7.03;;
10651;SDS011;5374;42.742;23.266;2024-03-25T07:27:44;9.20;;;8.07;;
10651;SDS011;5374;42.742;23.266;2024-03-25T07:30:30;9.07;;;7.40;;
10651;SDS011;5374;42.742;23.266;2024-03-25T07:33:16;10.67;;;7.60;;
10651;SDS011;5374;42.742;23.266;2024-03-25T07:36:02;8.10;;;7.30;;
10651;SDS011;5374;42.742;23.266;2024-03-25T07:38:49;7.30;;;6.10;;
10651;SDS011;5374;42.742;23.266;2024-03-25T07:41:35;7.17;;;6.47;;
10651;SDS011;5374;42.742;23.266;2024-03-25T07:44:23;6.93;;;6.23;;
10651;SDS011;5374;42.742;23.266;2024-03-25T07:47:09;7.63;;;6.93;;
10651;SDS011;5374;42.742;23.266;2024-03-25T07:49:55;8.93;;;6.30;;
10651;SDS011;5374;42.742;23.266;2024-03-25T07:52:41;7.90;;;7.20;;
10651;SDS011;5374;42.742;23.266;2024-03-25T07:55:27;11.00;;;9.03;;
10651;SDS011;5374;42.742;23.266;2024-03-25T07:58:13;8.97;;;8.07;;
10651;SDS011;5374;42.742;23.266;2024-03-25T08:01:00;8.67;;;7.87;;
10651;SDS011;5374;42.742;23.266;2024-03-25T08:03:47;8.13;;;7.27;;
10651;SDS011;5374;42.742;23.266;2024-03-25T08:06:33;9.33;;;8.33;;
10651;SDS011;5374;42.742;23.266;2024-03-25T08:09:19;8.50;;;7.70;;
10651;SDS011;5374;42.742;23.266;2024-03-25T08:12:06;7.50;;;6.80;;
10651;SDS011;5374;42.742;23.266;2024-03-25T08:14:52;9.63;;;7.50;;
10651;SDS011;5374;42.742;23.266;2024-03-25T08:17:40;6.70;;;6.10;;
10651;SDS011;5374;42.742;23.266;2024-03-25T08:20:26;7.47;;;6.77;;
10651;SDS011;5374;42.742;23.266;2024-03-25T08:23:12;7.67;;;6.97;;
10651;SDS011;5374;42.742;23.266;2024-03-25T08:25:58;8.93;;;7.50;;
10651;SDS011;5374;42.742;23.266;2024-03-25T08:28:44;8.33;;;7.60;;
10651;SDS011;5374;42.742;23.266;2024-03-25T08:31:30;6.63;;;6.03;;
10651;SDS011;5374;42.742;23.266;2024-03-25T08:34:17;8.23;;;7.43;;
10651;SDS011;5374;42.742;23.266;2024-03-25T08:37:04;6.53;;;5.93;;
10651;SDS011;5374;42.742;23.266;2024-03-25T08:39:50;6.90;;;6.20;;
10651;SDS011;5374;42.742;23.266;2024-03-25T08:42:36;7.17;;;5.87;;
10651;SDS011;5374;42.742;23.266;2024-03-25T08:45:22;6.47;;;5.80;;
10651;SDS011;5374;42.742;23.266;2024-03-25T08:48:08;6.87;;;6.00;;
10651;SDS011;5374;42.742;23.266;2024-03-25T08:50:55;7.90;;;6.30;;
10651;SDS011;5374;42.742;23.266;2024-03-25T08:53:41;6.83;;;6.20;;
10651;SDS011;5374;42.742;23.266;2024-03-25T08:56:28;6.37;;;5.63;;
10651;SDS011;5374;42.742;23.266;2024-03-25T08:59:14;6.97;;;6.27;;
10651;SDS011;5374;42.742;23.266;2024-03-25T09:02:00;7.70;;;6.23;;
10651;SDS011;5374;42.742;23.266;2024-03-25T09:04:46;6.50;;;5.90;;
10651;SDS011;5374;42.742;23.266;2024-03-25T09:07:34;6.70;;;6.10;;
10651;SDS011;5374;42.742;23.266;2024-03-25T09:10:20;8.30;;;6.90;;
10651;SDS011;5374;42.742;23.266;2024-03-25T09:13:25;6.53;;;5.73;;
10651;SDS011;5374;42.742;23.266;2024-03-25T09:16:11;7.17;;;6.50;;
10651;SDS011;5374;42.742;23.266;2024-03-25T09:18:57;9.90;;;6.77;;
10651;SDS011;5374;42.742;23.266;2024-03-25T09:21:43;9.47;;;7.30;;
10651;SDS011;5374;42.742;23.266;2024-03-25T09:24:30;8.27;;;6.97;;
10651;SDS011;5374;42.742;23.266;2024-03-25T09:27:17;6.70;;;6.00;;
10651;SDS011;5374;42.742;23.266;2024-03-25T09:30:03;9.00;;;6.10;;
10651;SDS011;5374;42.742;23.266;2024-03-25T09:32:50;6.83;;;6.13;;
10651;SDS011;5374;42.742;23.266;2024-03-25T09:35:36;7.87;;;6.60;;
10651;SDS011;5374;42.742;23.266;2024-03-25T09:38:22;7.33;;;6.53;;
10651;SDS011;5374;42.742;23.266;2024-03-25T09:41:10;10.03;;;5.83;;
10651;SDS011;5374;42.742;23.266;2024-03-25T09:43:56;7.57;;;6.20;;
10651;SDS011;5374;42.742;23.266;2024-03-25T09:46:43;8.33;;;6.77;;
10651;SDS011;5374;42.742;23.266;2024-03-25T09:49:29;18.63;;;11.43;;
10651;SDS011;5374;42.742;23.266;2024-03-25T09:52:23;9.83;;;8.30;;
10651;SDS011;5374;42.742;23.266;2024-03-25T09:55:09;7.53;;;6.73;;
10651;SDS011;5374;42.742;23.266;2024-03-25T09:57:56;6.67;;;5.97;;
10651;SDS011;5374;42.742;23.266;2024-03-25T10:00:44;6.07;;;5.17;;
10651;SDS011;5374;42.742;23.266;2024-03-25T10:03:31;6.27;;;5.13;;
10651;SDS011;5374;42.742;23.266;2024-03-25T10:06:17;6.23;;;5.63;;
10651;SDS011;5374;42.742;23.266;2024-03-25T10:09:04;6.27;;;5.63;;
10651;SDS011;5374;42.742;23.266;2024-03-25T10:11:53;7.77;;;6.03;;
10651;SDS011;5374;42.742;23.266;2024-03-25T10:14:41;6.83;;;5.57;;
10651;SDS011;5374;42.742;23.266;2024-03-25T10:17:27;5.40;;;4.90;;
10651;SDS011;5374;42.742;23.266;2024-03-25T10:20:13;6.93;;;6.33;;
10651;SDS011;5374;42.742;23.266;2024-03-25T10:23:00;6.00;;;4.70;;
10651;SDS011;5374;42.742;23.266;2024-03-25T10:25:47;5.67;;;4.63;;
10651;SDS011;5374;42.742;23.266;2024-03-25T10:28:34;5.83;;;4.17;;
10651;SDS011;5374;42.742;23.266;2024-03-25T10:31:21;5.13;;;4.50;;
10651;SDS011;5374;42.742;23.266;2024-03-25T10:34:07;5.43;;;4.23;;
10651;SDS011;5374;42.742;23.266;2024-03-25T10:36:56;6.33;;;5.10;;
10651;SDS011;5374;42.742;23.266;2024-03-25T10:39:47;6.13;;;5.10;;
10651;SDS011;5374;42.742;23.266;2024-03-25T10:42:33;7.60;;;5.10;;
10651;SDS011;5374;42.742;23.266;2024-03-25T10:45:23;6.23;;;4.10;;
10651;SDS011;5374;42.742;23.266;2024-03-25T10:48:12;5.00;;;4.50;;
10651;SDS011;5374;42.742;23.266;2024-03-25T10:51:01;4.30;;;3.90;;
10651;SDS011;5374;42.742;23.266;2024-03-25T10:53:51;5.30;;;4.80;;
10651;SDS011;5374;42.742;23.266;2024-03-25T10:56:38;4.80;;;4.30;;
10651;SDS011;5374;42.742;23.266;2024-03-25T10:59:26;5.73;;;4.23;;
10651;SDS011;5374;42.742;23.266;2024-03-25T11:02:12;7.17;;;4.87;;
10651;SDS011;5374;42.742;23.266;2024-03-25T11:05:00;5.50;;;4.93;;
10651;SDS011;5374;42.742;23.266;2024-03-25T11:07:47;10.03;;;4.67;;
10651;SDS011;5374;42.742;23.266;2024-03-25T11:10:33;4.77;;;4.27;;
10651;SDS011;5374;42.742;23.266;2024-03-25T11:13:26;4.47;;;4.07;;
10651;SDS011;5374;42.742;23.266;2024-03-25T11:16:13;4.80;;;4.30;;
10651;SDS011;5374;42.742;23.266;2024-03-25T11:19:00;7.13;;;4.70;;
10651;SDS011;5374;42.742;23.266;2024-03-25T11:21:49;4.73;;;3.87;;
10651;SDS011;5374;42.742;23.266;2024-03-25T11:24:35;4.83;;;2.63;;
10651;SDS011;5374;42.742;23.266;2024-03-25T11:27:22;3.47;;;3.17;;
10651;SDS011;5374;42.742;23.266;2024-03-25T11:30:12;4.23;;;3.83;;
10651;SDS011;5374;42.742;23.266;2024-03-25T11:33:00;3.87;;;3.47;;
10651;SDS011;5374;42.742;23.266;2024-03-25T11:35:49;5.40;;;4.57;;
10651;SDS011;5374;42.742;23.266;2024-03-25T11:38:36;8.43;;;5.00;;
10651;SDS011;5374;42.742;23.266;2024-03-25T11:41:23;10.53;;;6.30;;
10651;SDS011;5374;42.742;23.266;2024-03-25T11:44:09;6.73;;;4.50;;
10651;SDS011;5374;42.742;23.266;2024-03-25T11:46:56;4.80;;;3.90;;
10651;SDS011;5374;42.742;23.266;2024-03-25T11:49:42;4.93;;;4.43;;
10651;SDS011;5374;42.742;23.266;2024-03-25T11:52:32;5.10;;;3.30;;
10651;SDS011;5374;42.742;23.266;2024-03-25T11:55:19;5.17;;;4.03;;
10651;SDS011;5374;42.742;23.266;2024-03-25T11:58:06;6.53;;;3.90;;
10651;SDS011;5374;42.742;23.266;2024-03-25T12:00:53;4.07;;;3.57;;
10651;SDS011;5374;42.742;23.266;2024-03-25T12:03:39;4.60;;;4.20;;
10651;SDS011;5374;42.742;23.266;2024-03-25T12:06:25;3.77;;;3.47;;
10651;SDS011;5374;42.742;23.266;2024-03-25T12:09:11;3.87;;;3.37;;
10651;SDS011;5374;42.742;23.266;2024-03-25T12:12:17;7.07;;;4.20;;
10651;SDS011;5374;42.742;23.266;2024-03-25T12:15:04;4.97;;;3.87;;
10651;SDS011;5374;42.742;23.266;2024-03-25T12:17:51;4.77;;;3.70;;
10651;SDS011;5374;42.742;23.266;2024-03-25T12:20:37;3.77;;;3.20;;
10651;SDS011;5374;42.742;23.266;2024-03-25T12:23:28;3.70;;;3.40;;
10651;SDS011;5374;42.742;23.266;2024-03-25T12:26:14;5.20;;;3.37;;
10651;SDS011;5374;42.742;23.266;2024-03-25T12:29:02;4.00;;;3.30;;
10651;SDS011;5374;42.742;23.266;2024-03-25T12:31:53;3.93;;;3.27;;
10651;SDS011;5374;42.742;23.266;2024-03-25T12:34:42;5.17;;;4.10;;
10651;SDS011;5374;42.742;23.266;2024-03-25T12:37:28;6.10;;;3.03;;
10651;SDS011;5374;42.742;23.266;2024-03-25T12:40:25;3.73;;;3.40;;
10651;SDS011;5374;42.742;23.266;2024-03-25T12:43:13;6.13;;;4.20;;
10651;SDS011;5374;42.742;23.266;2024-03-25T12:46:01;7.57;;;4.50;;
10651;SDS011;5374;42.742;23.266;2024-03-25T12:48:48;5.00;;;3.00;;
10651;SDS011;5374;42.742;23.266;2024-03-25T12:51:34;4.07;;;3.33;;
10651;SDS011;5374;42.742;23.266;2024-03-25T12:54:21;3.13;;;2.83;;
10651;SDS011;5374;42.742;23.266;2024-03-25T12:57:07;4.03;;;3.63;;
10651;SDS011;5374;42.742;23.266;2024-03-25T12:59:53;4.90;;;3.50;;
10651;SDS011;5374;42.742;23.266;2024-03-25T13:02:40;4.43;;;3.97;;
10651;SDS011;5374;42.742;23.266;2024-03-25T13:05:26;11.60;;;7.33;;
10651;SDS011;5374;42.742;23.266;2024-03-25T13:08:13;4.27;;;3.83;;
10651;SDS011;5374;42.742;23.266;2024-03-25T13:10:59;4.57;;;4.17;;
10651;SDS011;5374;42.742;23.266;2024-03-25T13:13:45;7.83;;;4.90;;
10651;SDS011;5374;42.742;23.266;2024-03-25T13:16:31;5.70;;;4.90;;
10651;SDS011;5374;42.742;23.266;2024-03-25T13:19:19;11.13;;;8.30;;
10651;SDS011;5374;42.742;23.266;2024-03-25T13:22:05;7.53;;;5.37;;
10651;SDS011;5374;42.742;23.266;2024-03-25T13:24:52;5.17;;;4.20;;
10651;SDS011;5374;42.742;23.266;2024-03-25T13:27:38;5.57;;;4.77;;
10651;SDS011;5374;42.742;23.266;2024-03-25T13:30:24;6.33;;;5.03;;
10651;SDS011;5374;42.742;23.266;2024-03-25T13:33:10;5.10;;;4.33;;
10651;SDS011;5374;42.742;23.266;2024-03-25T13:35:58;7.37;;;5.30;;
10651;SDS011;5374;42.742;23.266;2024-03-25T13:38:44;6.03;;;4.70;;
10651;SDS011;5374;42.742;23.266;2024-03-25T13:41:30;5.13;;;4.37;;
10651;SDS011;5374;42.742;23.266;2024-03-25T13:44:16;5.73;;;3.40;;
10651;SDS011;5374;42.742;23.266;2024-03-25T13:47:03;7.40;;;4.40;;
10651;SDS011;5374;42.742;23.266;2024-03-25T13:49:49;11.70;;;2.70;;
10651;SDS011;5374;42.742;23.266;2024-03-25T13:52:36;6.43;;;2.37;;
10651;SDS011;5374;42.742;23.266;2024-03-25T13:55:23;3.63;;;1.67;;
10651;SDS011;5374;42.742;23.266;2024-03-25T13:58:09;3.50;;;1.80;;
10651;SDS011;5374;42.742;23.266;2024-03-25T14:00:55;4.20;;;2.00;;
10651;SDS011;5374;42.742;23.266;2024-03-25T14:03:41;4.07;;;3.37;;
10651;SDS011;5374;42.742;23.266;2024-03-25T14:06:27;5.23;;;2.73;;
10651;SDS011;5374;42.742;23.266;2024-03-25T14:09:24;3.37;;;3.03;;
10651;SDS011;5374;42.742;23.266;2024-03-25T14:12:10;5.70;;;4.87;;
10651;SDS011;5374;42.742;23.266;2024-03-25T14:14:56;6.03;;;2.47;;
10651;SDS011;5374;42.742;23.266;2024-03-25T14:17:42;2.77;;;1.63;;
10651;SDS011;5374;42.742;23.266;2024-03-25T14:20:28;4.43;;;1.80;;
10651;SDS011;5374;42.742;23.266;2024-03-25T14:23:16;2.93;;;2.63;;
10651;SDS011;5374;42.742;23.266;2024-03-25T14:26:03;3.70;;;3.03;;
10651;SDS011;5374;42.742;23.266;2024-03-25T14:28:49;2.97;;;2.67;;
10651;SDS011;5374;42.742;23.266;2024-03-25T14:31:35;2.33;;;1.93;;
10651;SDS011;5374;42.742;23.266;2024-03-25T14:34:23;1.90;;;1.70;;
10651;SDS011;5374;42.742;23.266;2024-03-25T14:37:09;2.10;;;1.70;;
10651;SDS011;5374;42.742;23.266;2024-03-25T14:39:55;3.50;;;1.73;;
10651;SDS011;5374;42.742;23.266;2024-03-25T14:42:43;13.63;;;4.17;;
10651;SDS011;5374;42.742;23.266;2024-03-25T14:45:29;13.47;;;4.50;;
10651;SDS011;5374;42.742;23.266;2024-03-25T14:48:16;9.50;;;4.70;;
10651;SDS011;5374;42.742;23.266;2024-03-25T14:51:02;4.50;;;3.27;;
10651;SDS011;5374;42.742;23.266;2024-03-25T14:53:49;5.37;;;3.30;;
10651;SDS011;5374;42.742;23.266;2024-03-25T14:56:35;3.13;;;2.70;;
10651;SDS011;5374;42.742;23.266;2024-03-25T14:59:23;4.83;;;2.97;;
10651;SDS011;5374;42.742;23.266;2024-03-25T15:02:09;2.93;;;2.60;;
10651;SDS011;5374;42.742;23.266;2024-03-25T15:04:55;3.40;;;2.73;;
10651;SDS011;5374;42.742;23.266;2024-03-25T15:07:41;5.77;;;2.40;;
10651;SDS011;5374;42.742;23.266;2024-03-25T15:10:28;6.87;;;2.73;;
10651;SDS011;5374;42.742;23.266;2024-03-25T15:13:14;7.40;;;4.33;;
10651;SDS011;5374;42.742;23.266;2024-03-25T15:16:04;5.07;;;4.10;;
10651;SDS011;5374;42.742;23.266;2024-03-25T15:18:51;5.70;;;4.30;;
10651;SDS011;5374;42.742;23.266;2024-03-25T15:21:37;4.37;;;3.97;;
10651;SDS011;5374;42.742;23.266;2024-03-25T15:24:23;3.77;;;2.30;;
10651;SDS011;5374;42.742;23.266;2024-03-25T15:27:09;3.57;;;2.77;;
10651;SDS011;5374;42.742;23.266;2024-03-25T15:29:56;8.60;;;3.33;;
10651;SDS011;5374;42.742;23.266;2024-03-25T15:32:43;2.80;;;2.50;;
10651;SDS011;5374;42.742;23.266;2024-03-25T15:35:30;4.80;;;2.47;;
10651;SDS011;5374;42.742;23.266;2024-03-25T15:38:16;6.37;;;3.20;;
10651;SDS011;5374;42.742;23.266;2024-03-25T15:41:03;3.77;;;2.40;;
10651;SDS011;5374;42.742;23.266;2024-03-25T15:43:50;4.33;;;2.13;;
10651;SDS011;5374;42.742;23.266;2024-03-25T15:46:37;9.70;;;4.10;;
10651;SDS011;5374;42.742;23.266;2024-03-25T15:49:24;8.67;;;6.17;;
10651;SDS011;5374;42.742;23.266;2024-03-25T15:52:11;10.33;;;7.43;;
10651;SDS011;5374;42.742;23.266;2024-03-25T15:54:58;14.47;;;8.17;;
10651;SDS011;5374;42.742;23.266;2024-03-25T15:57:44;11.50;;;9.53;;
10651;SDS011;5374;42.742;23.266;2024-03-25T16:00:30;13.43;;;10.03;;
10651;SDS011;5374;42.742;23.266;2024-03-25T16:03:17;7.50;;;6.70;;
10651;SDS011;5374;42.742;23.266;2024-03-25T16:06:04;8.33;;;7.53;;
10651;SDS011;5374;42.742;23.266;2024-03-25T16:08:51;8.47;;;5.27;;
10651;SDS011;5374;42.742;23.266;2024-03-25T16:11:37;4.93;;;3.93;;
10651;SDS011;5374;42.742;23.266;2024-03-25T16:14:23;5.47;;;3.60;;
10651;SDS011;5374;42.742;23.266;2024-03-25T16:17:09;4.13;;;3.43;;
10651;SDS011;5374;42.742;23.266;2024-03-25T16:19:56;7.70;;;4.37;;
10651;SDS011;5374;42.742;23.266;2024-03-25T16:22:43;6.73;;;3.70;;
10651;SDS011;5374;42.742;23.266;2024-03-25T16:25:32;4.63;;;3.90;;
10651;SDS011;5374;42.742;23.266;2024-03-25T16:28:18;6.10;;;4.07;;
10651;SDS011;5374;42.742;23.266;2024-03-25T16:31:04;9.50;;;5.60;;
10651;SDS011;5374;42.742;23.266;2024-03-25T16:33:50;11.43;;;6.83;;
10651;SDS011;5374;42.742;23.266;2024-03-25T16:36:37;13.50;;;9.00;;
10651;SDS011;5374;42.742;23.266;2024-03-25T16:39:24;12.23;;;6.50;;
10651;SDS011;5374;42.742;23.266;2024-03-25T16:42:10;9.13;;;6.70;;
10651;SDS011;5374;42.742;23.266;2024-03-25T16:44:57;13.40;;;7.30;;